Aviation Digital Data Service (ADDS)

Output produced by METARs form (0012 UTC 24 May 2022)
found at http://www.aviationweather.gov/metar/data/
 
FMMI 240000Z 10005KT 9999 FEW017 12/12 Q1020 NOSIG
TAF COR FMMI 232330Z 2400/2506 14004KT 9999 FEW017 SCT020 
     PROB30 2400/2405 0600 FG BKN005 
     BECMG 2408/2410 08010KT 
     BECMG 2418/2420 14004KT 
     PROB40 2500/2506 0300 FG BKN003
       
TAF FMNA 232300Z 2400/2424 14014KT 9999 SCT020
       
FMNM 240000Z 16004KT CAVOK 20/14 Q1012
TAF FMNM 232300Z 2400/2424 12004KT 9999 FEW023 
     BECMG 2404/2406 14014KT 
     BECMG 2413/2415 VRB04KT
       
TAF FMNN 232300Z 2400/2424 VRB02KT 9999 SCT020 
     PROB30 
     TEMPO 2400/2402 4500 SHRA 
     BECMG 2412/2414 22012KT 
     BECMG 2418/2420 22002KT
       
TAF FMMS 232300Z 2400/2424 18010KT 9999 SCT017 
     PROB30 
     TEMPO 2400/2412 4500 SHRA
       
FMMT 240000Z 28003KT 9999 VCSH FEW017 BKN033 20/19 Q1016 NOSIG
TAF FMMT 232300Z 2400/2424 22004KT 9999 SCT017 
     BECMG 2408/2410 16010KT 
     BECMG 2416/2418 24004KT
       
FMSD 240000Z 08012KT 9999 FEW020 23/20 Q1013
TAF FMSD 232300Z 2400/2424 08016KT 9999 FEW020
       
TAF FMST 232300Z 2400/2424 04004KT 9999 FEW020 
     BECMG 2406/2408 32010KT 
     BECMG 2414/2416 26010KT SCT020CB 
     PROB40 
     TEMPO 2418/2424 4500 TSRA